createdAt,value
2023-02-22T00:00:50.058Z,7.90
2023-02-22T00:03:19.197Z,7.43
2023-02-22T00:05:47.497Z,7.10
2023-02-22T00:08:18.296Z,8.40
2023-02-22T00:10:45.944Z,9.47
2023-02-22T00:13:14.548Z,8.57
2023-02-22T00:15:41.987Z,7.50
2023-02-22T00:18:11.181Z,7.13
2023-02-22T00:20:38.948Z,8.33
2023-02-22T00:23:13.732Z,8.23
2023-02-22T00:25:41.252Z,7.97
2023-02-22T00:28:08.820Z,7.47
2023-02-22T00:30:36.833Z,8.53
2023-02-22T00:33:06.108Z,8.07
2023-02-22T00:35:34.887Z,8.60
2023-02-22T00:38:02.729Z,7.77
2023-02-22T00:40:31.780Z,9.23
2023-02-22T00:43:00.138Z,10.30
2023-02-22T00:45:29.006Z,9.03
2023-02-22T00:47:59.808Z,7.93
2023-02-22T00:50:28.133Z,7.67
2023-02-22T00:52:56.723Z,6.60
2023-02-22T00:55:26.527Z,7.23
2023-02-22T00:57:54.565Z,7.83
2023-02-22T01:00:28.539Z,7.80
2023-02-22T01:02:56.966Z,7.60
2023-02-22T01:05:26.777Z,7.83
2023-02-22T01:07:55.770Z,6.67
2023-02-22T01:10:24.977Z,9.27
2023-02-22T01:12:53.075Z,6.43
2023-02-22T01:15:24.346Z,9.00
2023-02-22T01:17:53.614Z,6.50
2023-02-22T01:20:29.236Z,8.53
2023-02-22T01:23:00.047Z,9.17
2023-02-22T01:25:30.895Z,8.10
2023-02-22T01:27:59.582Z,7.10
2023-02-22T01:30:33.104Z,8.03
2023-02-22T01:33:01.826Z,8.13
2023-02-22T01:35:30.773Z,7.43
2023-02-22T01:38:01.588Z,6.80
2023-02-22T01:40:36.954Z,8.17
2023-02-22T01:43:06.429Z,7.33
2023-02-22T01:45:33.799Z,7.40
2023-02-22T01:48:20.321Z,6.97
2023-02-22T01:51:11.282Z,7.90
2023-02-22T01:53:56.269Z,7.80
2023-02-22T02:04:44.269Z,7.83
2023-02-22T02:07:13.766Z,6.70
2023-02-22T02:09:45.599Z,7.57
2023-02-22T02:12:14.692Z,6.03
2023-02-22T02:14:43.926Z,6.73
2023-02-22T02:17:12.716Z,6.97
2023-02-22T02:19:49.411Z,6.50
2023-02-22T02:22:16.777Z,7.67
2023-02-22T02:24:50.398Z,7.10
2023-02-22T02:27:23.242Z,7.27
2023-02-22T02:29:53.158Z,7.83
2023-02-22T02:32:28.721Z,7.20
2023-02-22T02:34:59.356Z,6.40
2023-02-22T02:37:40.050Z,7.10
2023-02-22T02:40:11.387Z,7.20
2023-02-22T02:43:05.169Z,6.40
2023-02-22T02:45:38.982Z,6.77
2023-02-22T02:48:08.013Z,6.97
2023-02-22T02:50:41.648Z,7.47
2023-02-22T02:53:09.458Z,6.70
2023-02-22T02:55:37.763Z,7.60
2023-02-22T02:58:06.411Z,6.97
2023-02-22T03:00:39.472Z,6.33
2023-02-22T03:03:10.437Z,5.97
2023-02-22T03:05:56.983Z,6.67
2023-02-22T03:08:32.879Z,8.40
2023-02-22T03:11:04.649Z,6.90
2023-02-22T03:13:52.004Z,6.43
2023-02-22T03:16:29.847Z,7.33
2023-02-22T03:19:04.792Z,8.47
2023-02-22T03:21:39.296Z,7.20
2023-02-22T03:24:17.065Z,7.50
2023-02-22T03:26:47.203Z,7.43
2023-02-22T03:29:17.985Z,7.73
2023-02-22T03:31:49.166Z,7.73
2023-02-22T03:34:20.191Z,7.53
2023-02-22T03:36:52.694Z,6.70
2023-02-22T03:39:20.709Z,6.83
2023-02-22T03:41:51.672Z,6.50
2023-02-22T03:44:27.635Z,8.23
2023-02-22T03:46:56.942Z,7.23
2023-02-22T03:49:36.882Z,7.30
2023-02-22T03:52:07.821Z,7.40
2023-02-22T03:54:36.308Z,7.20
2023-02-22T03:57:22.125Z,6.97
2023-02-22T03:59:53.833Z,6.97
2023-02-22T04:02:23.781Z,6.93
2023-02-22T04:04:51.959Z,6.37
2023-02-22T04:07:19.790Z,8.73
2023-02-22T04:09:47.579Z,8.67
2023-02-22T04:12:16.207Z,7.37
2023-02-22T04:15:15.615Z,7.83
2023-02-22T04:17:43.873Z,7.67
2023-02-22T04:20:14.671Z,7.10
2023-02-22T04:22:49.585Z,6.80
2023-02-22T04:25:17.569Z,9.90
2023-02-22T04:27:47.537Z,7.80
2023-02-22T04:30:18.131Z,6.87
2023-02-22T04:32:45.598Z,7.10
2023-02-22T04:35:14.957Z,7.50
2023-02-22T04:37:43.074Z,7.53
2023-02-22T04:40:11.553Z,7.23
2023-02-22T04:42:39.416Z,7.20
2023-02-22T04:45:08.381Z,7.77
2023-02-22T04:47:37.355Z,7.20
2023-02-22T04:50:07.155Z,7.23
2023-02-22T04:52:35.214Z,7.70
2023-02-22T04:55:02.975Z,7.53
2023-02-22T04:57:30.630Z,7.27
2023-02-22T04:59:58.229Z,8.20
2023-02-22T05:02:26.212Z,8.57
2023-02-22T05:04:53.939Z,7.87
2023-02-22T05:07:21.413Z,7.97
2023-02-22T05:09:49.059Z,8.07
2023-02-22T05:12:16.520Z,8.10
2023-02-22T05:14:44.571Z,7.23
2023-02-22T05:17:12.051Z,7.60
2023-02-22T05:19:39.500Z,7.23
2023-02-22T05:22:06.981Z,8.10
2023-02-22T05:24:35.142Z,8.10
2023-02-22T05:27:02.592Z,6.87
2023-02-22T05:29:30.003Z,9.77
2023-02-22T05:32:00.374Z,7.17
2023-02-22T05:34:27.854Z,6.97
2023-02-22T05:36:55.181Z,8.07
2023-02-22T05:39:22.926Z,7.13
2023-02-22T05:41:50.417Z,8.83
2023-02-22T05:44:17.944Z,6.87
2023-02-22T05:46:45.387Z,8.13
2023-02-22T05:49:12.841Z,7.47
2023-02-22T05:51:40.334Z,8.93
2023-02-22T05:54:07.826Z,7.93
2023-02-22T05:56:36.376Z,7.30
2023-02-22T05:59:03.974Z,8.47
2023-02-22T06:01:31.483Z,7.47
2023-02-22T06:03:59.041Z,8.67
2023-02-22T06:06:26.565Z,7.77
2023-02-22T06:08:54.045Z,7.90
2023-02-22T06:11:22.058Z,7.70
2023-02-22T06:13:52.869Z,7.63
2023-02-22T06:16:21.322Z,8.07
2023-02-22T06:18:49.095Z,8.13
2023-02-22T06:21:17.713Z,10.70
2023-02-22T06:23:45.662Z,7.23
2023-02-22T06:26:18.676Z,6.80
2023-02-22T06:28:47.109Z,8.90
2023-02-22T06:31:14.979Z,7.83
2023-02-22T06:33:42.524Z,8.50
2023-02-22T06:36:10.602Z,7.97
2023-02-22T06:38:38.050Z,8.13
2023-02-22T06:41:05.550Z,7.57
2023-02-22T06:43:32.952Z,6.57
2023-02-22T06:46:00.581Z,7.67
2023-02-22T06:48:28.103Z,8.30
2023-02-22T06:50:55.729Z,7.93
2023-02-22T06:53:23.326Z,9.13
2023-02-22T06:55:50.909Z,7.77
2023-02-22T06:58:18.522Z,7.30
2023-02-22T07:00:45.917Z,8.20
2023-02-22T07:03:14.363Z,7.90
2023-02-22T07:05:41.998Z,8.30
2023-02-22T07:08:09.559Z,7.20
2023-02-22T07:10:40.807Z,8.43
2023-02-22T07:13:09.369Z,8.03
2023-02-22T07:15:37.082Z,7.17
2023-02-22T07:18:07.812Z,7.50
2023-02-22T07:20:37.533Z,8.37
2023-02-22T07:23:05.999Z,7.87
2023-02-22T07:25:36.614Z,7.40
2023-02-22T07:28:04.511Z,6.63
2023-02-22T07:30:34.180Z,8.07
2023-02-22T07:33:03.352Z,8.43
2023-02-22T07:35:38.193Z,8.80
2023-02-22T07:38:08.927Z,8.60
2023-02-22T07:40:37.607Z,7.70
2023-02-22T07:43:18.331Z,7.13
2023-02-22T07:45:46.522Z,7.53
2023-02-22T07:48:16.919Z,7.03
2023-02-22T07:50:48.345Z,7.00
2023-02-22T07:53:19.441Z,7.60
2023-02-22T07:55:50.986Z,7.40
2023-02-22T07:58:20.282Z,6.73
2023-02-22T08:00:48.534Z,7.17
2023-02-22T08:03:17.660Z,7.83
2023-02-22T08:05:49.954Z,7.63
2023-02-22T08:08:19.952Z,6.67
2023-02-22T08:10:48.093Z,6.63
2023-02-22T08:13:16.162Z,6.27
2023-02-22T08:15:47.325Z,8.07
2023-02-22T08:18:16.413Z,6.37
2023-02-22T08:20:44.819Z,7.43
2023-02-22T08:23:13.065Z,6.37
2023-02-22T08:25:40.555Z,5.90
2023-02-22T08:28:20.274Z,6.50
2023-02-22T08:30:48.083Z,6.53
2023-02-22T08:33:19.719Z,6.67
2023-02-22T08:35:51.984Z,6.50
2023-02-22T08:38:31.192Z,6.57
2023-02-22T08:41:01.504Z,5.90
2023-02-22T08:43:32.526Z,6.50
2023-02-22T08:46:00.991Z,6.50
2023-02-22T08:48:28.992Z,6.63
2023-02-22T08:50:56.903Z,6.70
2023-02-22T08:53:24.350Z,5.73
2023-02-22T08:55:54.253Z,6.43
2023-02-22T08:58:23.661Z,6.77
2023-02-22T09:00:51.297Z,6.23
2023-02-22T09:03:19.215Z,7.10
2023-02-22T09:05:47.218Z,6.37
2023-02-22T09:08:16.848Z,8.60
2023-02-22T09:10:45.714Z,6.27
2023-02-22T09:13:13.857Z,6.10
2023-02-22T09:15:53.292Z,5.37
2023-02-22T09:18:23.708Z,6.10
2023-02-22T09:20:55.701Z,7.27
2023-02-22T09:23:23.976Z,6.40
2023-02-22T09:25:53.803Z,6.97
2023-02-22T09:28:23.457Z,6.10
2023-02-22T09:30:51.114Z,6.70
2023-02-22T09:33:22.532Z,5.40
2023-02-22T09:35:50.908Z,5.80
2023-02-22T09:38:20.036Z,6.10
2023-02-22T09:40:55.046Z,7.27
2023-02-22T09:43:42.779Z,6.63
2023-02-22T09:46:19.260Z,6.40
2023-02-22T09:49:07.612Z,6.27
2023-02-22T09:51:42.578Z,5.23
2023-02-22T09:54:17.819Z,6.60
2023-02-22T09:56:59.593Z,6.73
2023-02-22T09:59:33.557Z,6.63
2023-02-22T10:02:34.637Z,7.07
2023-02-22T10:05:13.674Z,5.60
2023-02-22T10:07:52.153Z,6.70
2023-02-22T10:10:25.695Z,6.13
2023-02-22T10:12:53.526Z,6.33
2023-02-22T10:15:21.616Z,7.10
2023-02-22T10:18:07.926Z,6.67
2023-02-22T10:20:43.023Z,6.17
2023-02-22T10:23:19.774Z,6.90
2023-02-22T10:25:53.319Z,6.17
2023-02-22T10:28:28.912Z,6.30
2023-02-22T10:31:04.866Z,6.37
2023-02-22T10:33:39.658Z,5.33
2023-02-22T10:36:17.084Z,7.17
2023-02-22T10:38:51.638Z,5.90
2023-02-22T10:41:30.737Z,5.87
2023-02-22T10:43:59.201Z,5.60
2023-02-22T10:46:29.993Z,5.73
2023-02-22T10:49:04.303Z,5.50
2023-02-22T10:51:39.287Z,5.23
2023-02-22T10:54:15.267Z,5.30
2023-02-22T10:56:56.923Z,6.60
2023-02-22T10:59:35.168Z,5.33
2023-02-22T11:05:41.499Z,6.80
2023-02-22T11:08:24.637Z,6.20
2023-02-22T11:11:01.522Z,6.47
2023-02-22T11:13:34.075Z,6.03
2023-02-22T11:16:20.531Z,7.57
2023-02-22T11:18:50.720Z,5.97
2023-02-22T11:21:24.532Z,6.30
2023-02-22T11:24:05.098Z,5.60
2023-02-22T11:26:50.353Z,6.07
2023-02-22T11:29:47.916Z,7.30
2023-02-22T11:32:22.403Z,5.20
2023-02-22T11:35:03.574Z,6.30
2023-02-22T11:37:39.529Z,6.30
2023-02-22T11:40:21.733Z,5.77
2023-02-22T11:42:50.827Z,6.97
2023-02-22T11:45:25.243Z,6.67
2023-02-22T11:47:57.550Z,5.47
2023-02-22T11:50:43.800Z,5.90
2023-02-22T11:56:35.680Z,5.67
2023-02-22T11:59:08.962Z,4.77
2023-02-22T12:01:47.244Z,5.40
2023-02-22T12:04:33.854Z,5.67
2023-02-22T12:07:11.084Z,5.07
2023-02-22T12:09:59.047Z,5.97
2023-02-22T12:12:57.514Z,6.27
2023-02-22T12:15:25.271Z,5.90
2023-02-22T12:18:00.484Z,6.30
2023-02-22T12:20:32.911Z,5.73
2023-02-22T12:23:03.331Z,4.63
2023-02-22T12:25:40.929Z,5.67
2023-02-22T12:28:24.369Z,6.87
2023-02-22T12:31:08.656Z,5.73
2023-02-22T12:33:43.760Z,5.53
2023-02-22T12:36:16.567Z,5.03
2023-02-22T12:38:45.788Z,5.03
2023-02-22T12:41:32.582Z,6.13
2023-02-22T12:44:02.916Z,6.47
2023-02-22T12:46:44.692Z,6.00
2023-02-22T12:49:14.747Z,6.63
2023-02-22T12:52:20.526Z,6.20
2023-02-22T12:54:58.219Z,5.87
2023-02-22T12:57:38.854Z,4.77
2023-02-22T13:00:17.317Z,6.50
2023-02-22T13:02:47.065Z,6.23
2023-02-22T13:05:19.154Z,6.50
2023-02-22T13:07:53.822Z,6.43
2023-02-22T13:10:52.751Z,5.17
2023-02-22T13:13:30.144Z,5.33
2023-02-22T13:16:16.919Z,6.83
2023-02-22T13:18:54.576Z,5.47
2023-02-22T13:21:27.006Z,6.13
2023-02-22T13:24:05.568Z,6.27
2023-02-22T13:26:53.760Z,5.73
2023-02-22T13:29:28.749Z,6.67
2023-02-22T13:32:14.619Z,6.67
2023-02-22T13:35:03.998Z,6.30
2023-02-22T13:38:03.879Z,5.87
2023-02-22T13:40:50.797Z,6.33
2023-02-22T13:43:33.731Z,5.00
2023-02-22T13:46:09.903Z,6.73
2023-02-22T13:48:58.293Z,6.03
2023-02-22T13:51:41.655Z,5.97
2023-02-22T13:54:21.889Z,5.77
2023-02-22T13:56:51.703Z,6.67
2023-02-22T13:59:36.397Z,5.73
2023-02-22T14:02:14.537Z,6.87
2023-02-22T14:04:47.327Z,5.93
2023-02-22T14:07:26.443Z,7.03
2023-02-22T14:09:56.873Z,7.13
2023-02-22T14:12:30.432Z,6.93
2023-02-22T14:15:30.349Z,5.27
2023-02-22T14:18:05.450Z,6.17
2023-02-22T14:20:36.838Z,7.47
2023-02-22T14:23:23.350Z,7.03
2023-02-22T14:25:51.311Z,7.00
2023-02-22T14:28:38.421Z,5.70
2023-02-22T14:31:35.995Z,6.87
2023-02-22T14:34:06.299Z,7.73
2023-02-22T14:36:48.976Z,5.30
2023-02-22T14:39:33.969Z,5.83
2023-02-22T14:42:20.071Z,7.50
2023-02-22T14:44:57.016Z,5.83
2023-02-22T14:47:29.492Z,6.10
2023-02-22T14:50:11.920Z,5.37
2023-02-22T14:52:39.680Z,7.37
2023-02-22T14:55:23.434Z,5.60
2023-02-22T14:57:54.492Z,7.43
2023-02-22T15:00:33.150Z,7.43
2023-02-22T15:03:06.102Z,6.83
2023-02-22T15:05:39.838Z,6.87
2023-02-22T15:08:10.810Z,7.83
2023-02-22T15:10:43.323Z,7.63
2023-02-22T15:13:25.638Z,7.37
2023-02-22T15:16:01.268Z,5.93
2023-02-22T15:18:32.746Z,7.47
2023-02-22T15:21:07.065Z,6.63
2023-02-22T15:24:01.510Z,6.80
2023-02-22T15:26:35.250Z,7.87
2023-02-22T15:29:08.347Z,7.40
2023-02-22T15:31:42.105Z,5.80
2023-02-22T15:34:31.525Z,7.17
2023-02-22T15:37:25.637Z,7.27
2023-02-22T15:39:59.768Z,6.20
2023-02-22T15:42:30.489Z,5.77
2023-02-22T15:44:58.302Z,6.90
2023-02-22T15:47:32.912Z,6.20
2023-02-22T15:50:18.626Z,7.60
2023-02-22T15:52:58.569Z,7.80
2023-02-22T15:55:29.762Z,7.90
2023-02-22T15:58:10.862Z,8.03
2023-02-22T16:00:41.401Z,7.03
2023-02-22T16:03:10.528Z,7.53
2023-02-22T16:05:48.484Z,8.73
2023-02-22T16:08:16.132Z,9.47
2023-02-22T16:10:49.926Z,8.17
2023-02-22T16:13:33.051Z,9.10
2023-02-22T16:16:02.367Z,9.07
2023-02-22T16:18:34.729Z,7.90
2023-02-22T16:21:13.224Z,8.67
2023-02-22T16:23:50.547Z,8.33
2023-02-22T16:26:24.031Z,7.83
2023-02-22T16:29:09.987Z,7.77
2023-02-22T16:31:40.959Z,11.07
2023-02-22T16:34:11.214Z,7.80
2023-02-22T16:36:46.372Z,8.37
2023-02-22T16:39:20.866Z,9.43
2023-02-22T16:41:51.518Z,8.57
2023-02-22T16:44:19.130Z,9.60
2023-02-22T16:46:49.853Z,8.43
2023-02-22T16:49:17.660Z,8.47
2023-02-22T16:51:49.841Z,11.10
2023-02-22T16:54:21.691Z,10.13
2023-02-22T16:56:49.466Z,8.90
2023-02-22T16:59:17.423Z,9.03
2023-02-22T17:01:45.326Z,9.47
2023-02-22T17:04:18.139Z,9.27
2023-02-22T17:06:46.790Z,9.37
2023-02-22T17:09:17.192Z,8.53
2023-02-22T17:11:51.379Z,8.37
2023-02-22T17:14:23.374Z,10.77
2023-02-22T17:16:51.601Z,11.17
2023-02-22T17:19:21.251Z,9.33
2023-02-22T17:21:49.751Z,11.90
2023-02-22T17:24:20.278Z,11.43
2023-02-22T17:26:52.902Z,10.17
2023-02-22T17:29:23.184Z,8.87
2023-02-22T17:31:50.892Z,9.23
2023-02-22T17:34:18.400Z,9.97
2023-02-22T17:36:46.708Z,11.13
2023-02-22T17:39:14.272Z,10.50
2023-02-22T17:41:42.190Z,10.00
2023-02-22T17:44:11.466Z,12.03
2023-02-22T17:46:41.017Z,9.43
2023-02-22T17:49:09.250Z,10.07
2023-02-22T17:51:39.871Z,10.80
2023-02-22T17:54:09.433Z,9.67
2023-02-22T17:56:37.850Z,10.70
2023-02-22T17:59:09.114Z,8.77
2023-02-22T18:01:39.924Z,10.27
2023-02-22T18:04:07.675Z,10.77
2023-02-22T18:06:36.292Z,8.83
2023-02-22T18:09:13.592Z,10.40
2023-02-22T18:11:43.168Z,9.97
2023-02-22T18:14:13.594Z,8.83
2023-02-22T18:16:47.615Z,9.50
2023-02-22T18:19:20.437Z,9.03
2023-02-22T18:21:49.861Z,9.83
2023-02-22T18:27:39.431Z,9.67
2023-02-22T18:30:07.694Z,10.20
2023-02-22T18:32:35.038Z,9.30
2023-02-22T18:35:02.665Z,9.77
2023-02-22T18:37:29.932Z,9.30
2023-02-22T18:39:57.587Z,8.53
2023-02-22T18:42:25.792Z,8.63
2023-02-22T18:44:54.460Z,10.23
2023-02-22T18:47:22.433Z,8.97
2023-02-22T18:49:55.114Z,8.90
2023-02-22T18:52:31.057Z,9.63
2023-02-22T18:55:02.988Z,7.80
2023-02-22T18:58:04.777Z,10.20
2023-02-22T19:00:36.284Z,9.00
2023-02-22T19:03:05.045Z,9.63
2023-02-22T19:05:33.297Z,8.27
2023-02-22T19:08:01.056Z,8.90
2023-02-22T19:10:29.059Z,9.07
2023-02-22T19:12:56.358Z,10.03
2023-02-22T19:15:28.180Z,9.53
2023-02-22T19:17:56.629Z,9.67
2023-02-22T19:20:25.625Z,9.83
2023-02-22T19:22:53.667Z,10.30
2023-02-22T19:25:21.055Z,8.80
2023-02-22T19:27:48.432Z,9.70
2023-02-22T19:30:17.270Z,9.07
2023-02-22T19:32:47.407Z,9.97
2023-02-22T19:35:26.104Z,8.90
2023-02-22T19:37:54.193Z,9.17
2023-02-22T19:40:23.180Z,10.13
2023-02-22T19:42:55.181Z,8.70
2023-02-22T19:45:23.256Z,9.10
2023-02-22T19:47:54.368Z,8.57
2023-02-22T19:50:21.964Z,8.40
2023-02-22T19:52:49.443Z,9.93
2023-02-22T19:55:16.910Z,10.20
2023-02-22T19:57:46.437Z,7.87
2023-02-22T20:00:23.606Z,8.87
2023-02-22T20:03:05.930Z,8.27
2023-02-22T20:05:37.201Z,8.70
2023-02-22T20:08:06.647Z,8.00
2023-02-22T20:10:37.095Z,8.47
2023-02-22T20:13:04.488Z,9.50
2023-02-22T20:15:34.184Z,9.63
2023-02-22T20:18:01.751Z,8.50
2023-02-22T20:20:30.870Z,8.87
2023-02-22T20:22:58.297Z,9.20
2023-02-22T20:25:25.764Z,9.60
2023-02-22T20:27:53.196Z,9.67
2023-02-22T20:30:20.677Z,10.47
2023-02-22T20:32:48.224Z,8.40
2023-02-22T20:35:19.438Z,9.60
2023-02-22T20:37:46.912Z,8.33
2023-02-22T20:40:14.536Z,11.20
2023-02-22T20:42:41.912Z,8.97
2023-02-22T20:45:14.407Z,9.30
2023-02-22T20:47:41.947Z,8.03
2023-02-22T20:50:09.965Z,8.43
2023-02-22T20:52:37.431Z,8.60
2023-02-22T20:55:06.201Z,8.00
2023-02-22T20:57:33.598Z,8.77
2023-02-22T21:00:00.919Z,8.27
2023-02-22T21:02:28.551Z,10.10
2023-02-22T21:04:55.992Z,8.47
2023-02-22T21:07:23.519Z,8.93
2023-02-22T21:09:51.039Z,10.67
2023-02-22T21:12:18.509Z,9.27
2023-02-22T21:14:45.972Z,10.03
2023-02-22T21:17:13.453Z,9.47
2023-02-22T21:19:40.767Z,8.10
2023-02-22T21:22:08.406Z,8.53
2023-02-22T21:24:36.972Z,9.00
2023-02-22T21:27:06.809Z,9.80
2023-02-22T21:29:35.537Z,9.13
2023-02-22T21:32:03.433Z,10.37
2023-02-22T21:34:31.457Z,9.60
2023-02-22T21:36:58.925Z,9.87
2023-02-22T21:39:28.729Z,8.73
2023-02-22T21:42:00.591Z,9.73
2023-02-22T21:44:28.440Z,8.93
2023-02-22T21:46:55.971Z,11.07
2023-02-22T21:49:23.682Z,10.97
2023-02-22T21:51:51.819Z,9.40
2023-02-22T21:54:19.475Z,8.37
2023-02-22T21:56:46.866Z,8.83
2023-02-22T21:59:22.642Z,10.27
2023-02-22T22:01:55.804Z,10.37
2023-02-22T22:04:24.733Z,10.53
2023-02-22T22:06:58.855Z,8.83
2023-02-22T22:09:29.260Z,10.20
2023-02-22T22:12:12.337Z,10.00
2023-02-22T22:14:40.389Z,8.97
2023-02-22T22:17:09.391Z,10.43
2023-02-22T22:19:40.814Z,10.53
2023-02-22T22:22:09.081Z,9.87
2023-02-22T22:24:36.889Z,11.03
2023-02-22T22:27:06.586Z,9.50
2023-02-22T22:29:35.605Z,10.50
2023-02-22T22:32:03.513Z,8.80
2023-02-22T22:34:31.142Z,8.90
2023-02-22T22:36:58.974Z,8.87
2023-02-22T22:39:26.998Z,9.33
2023-02-22T22:41:54.514Z,11.20
2023-02-22T22:44:28.898Z,10.97
2023-02-22T22:46:56.395Z,11.57
2023-02-22T22:49:25.473Z,8.33
2023-02-22T22:51:53.527Z,9.43
2023-02-22T22:54:21.033Z,8.83
2023-02-22T22:56:48.461Z,11.50
2023-02-22T22:59:16.220Z,10.23
2023-02-22T23:01:44.868Z,8.67
2023-02-22T23:04:24.292Z,8.57
2023-02-22T23:06:53.172Z,9.37
2023-02-22T23:09:22.018Z,9.57
2023-02-22T23:11:53.660Z,8.53
2023-02-22T23:14:34.187Z,10.37
2023-02-22T23:17:03.284Z,9.17
2023-02-22T23:19:32.020Z,8.33
2023-02-22T23:21:59.574Z,8.77
2023-02-22T23:24:28.550Z,9.47
2023-02-22T23:27:00.248Z,8.70
2023-02-22T23:29:29.963Z,11.43
2023-02-22T23:32:01.014Z,10.73
2023-02-22T23:34:29.023Z,10.67
2023-02-22T23:36:56.576Z,9.77
2023-02-22T23:39:24.716Z,10.60
2023-02-22T23:41:57.719Z,10.50
2023-02-22T23:44:31.207Z,9.57
2023-02-22T23:47:01.021Z,9.43
2023-02-22T23:49:38.985Z,9.63
2023-02-22T23:52:07.132Z,11.53
2023-02-22T23:54:43.891Z,9.10
2023-02-22T23:57:11.632Z,10.50
2023-02-22T23:59:40.520Z,8.53
